Time;durP1;ratioP1;P1;durP2;ratioP2;P2;SDS_P1;SDS_P2;PMS_P1;PMS_P2;Temp;Humidity;BMP_temperature;BMP_pressure;BME280_temperature;BME280_humidity;BME280_pressure;Samples;Min_cycle;Max_cycle;Signal;HPM_P1;HPM_P2
2022/04/27 00:00:16;;;;;;;17.25;4.82;;;10.80;99.90;;;;;;5036763;28;20029;-77
2022/04/27 00:02:42;;;;;;;19.83;4.75;;;10.80;99.90;;;;;;5035686;28;20026;-77
2022/04/27 00:05:09;;;;;;;13.57;4.28;;;10.80;99.90;;;;;;5035530;28;20025;-76
2022/04/27 00:07:34;;;;;;;15.38;4.60;;;10.80;99.90;;;;;;5035985;28;20434;-77
2022/04/27 00:10:00;;;;;;;15.27;4.30;;;10.80;99.90;;;;;;5036490;28;20034;-76
2022/04/27 00:12:25;;;;;;;22.88;5.57;;;10.70;99.90;;;;;;5035410;28;20025;-76
2022/04/27 00:14:52;;;;;;;16.58;4.50;;;10.70;99.90;;;;;;5037421;28;20087;-79
2022/04/27 00:17:17;;;;;;;14.43;4.97;;;10.70;99.90;;;;;;5036072;28;20056;-78
2022/04/27 00:19:43;;;;;;;15.80;4.68;;;10.60;99.90;;;;;;5042115;28;20021;-78
2022/04/27 00:22:11;;;;;;;17.27;4.30;;;10.60;99.90;;;;;;5036610;28;20035;-77
2022/04/27 00:24:39;;;;;;;13.98;4.53;;;10.60;99.90;;;;;;5035420;28;20037;-77
2022/04/27 00:27:05;;;;;;;14.50;4.43;;;10.50;99.90;;;;;;5034987;28;20071;-76
2022/04/27 00:29:31;;;;;;;12.93;4.75;;;10.50;99.90;;;;;;5034930;28;20501;-76
2022/04/27 00:31:57;;;;;;;24.85;4.95;;;10.40;99.90;;;;;;5035623;28;20025;-77
2022/04/27 00:34:22;;;;;;;13.43;4.90;;;10.50;99.90;;;;;;5036017;28;20075;-76
2022/04/27 00:36:48;;;;;;;18.58;5.97;;;10.40;99.90;;;;;;5021898;28;20116;-78
2022/04/27 00:39:13;;;;;;;19.83;5.00;;;10.40;99.90;;;;;;5036904;28;20026;-77
2022/04/27 00:41:39;;;;;;;18.30;4.50;;;10.30;99.90;;;;;;5037468;28;20105;-77
2022/04/27 00:44:05;;;;;;;17.60;4.90;;;10.30;99.90;;;;;;5038557;28;20029;-76
2022/04/27 00:46:30;;;;;;;23.05;4.93;;;10.30;99.90;;;;;;5038219;28;20107;-77
2022/04/27 00:48:55;;;;;;;18.75;5.57;;;10.30;99.90;;;;;;5036745;28;20037;-77
2022/04/27 00:51:26;;;;;;;17.98;4.70;;;10.30;99.90;;;;;;5035781;28;20032;-77
2022/04/27 00:53:52;;;;;;;15.07;5.10;;;10.20;99.90;;;;;;5033781;28;20486;-77
2022/04/27 00:56:21;;;;;;;20.50;4.90;;;10.20;99.90;;;;;;5034024;28;20032;-77
2022/04/27 00:58:48;;;;;;;17.92;5.13;;;10.20;99.90;;;;;;5034188;28;20020;-77
2022/04/27 01:01:14;;;;;;;19.17;4.97;;;10.20;99.90;;;;;;5034259;28;20076;-77
2022/04/27 01:03:40;;;;;;;12.32;4.68;;;10.20;99.90;;;;;;5033901;28;20017;-77
2022/04/27 01:06:06;;;;;;;20.20;5.32;;;10.10;99.90;;;;;;5034147;28;20033;-77
2022/04/27 01:08:32;;;;;;;17.67;4.53;;;10.10;99.90;;;;;;5034019;28;20032;-77
2022/04/27 01:10:59;;;;;;;22.30;5.20;;;10.10;99.90;;;;;;5033977;28;20033;-76
2022/04/27 01:13:27;;;;;;;13.75;4.78;;;10.00;99.90;;;;;;5033940;28;20113;-77
2022/04/27 01:15:52;;;;;;;17.10;4.82;;;9.90;99.90;;;;;;5033548;28;20079;-77
2022/04/27 01:18:18;;;;;;;14.55;4.97;;;9.90;99.90;;;;;;5034799;28;20108;-77
2022/04/27 01:20:45;;;;;;;19.88;5.03;;;9.90;99.90;;;;;;5034712;28;20026;-77
2022/04/27 01:23:12;;;;;;;14.63;5.05;;;9.80;99.90;;;;;;4999819;28;20053;-76
2022/04/27 01:25:49;;;;;;;17.42;5.47;;;9.80;99.90;;;;;;5035576;28;20025;-77
2022/04/27 01:28:18;;;;;;;13.90;4.68;;;9.80;99.90;;;;;;5040561;28;20028;-77
2022/04/27 01:30:44;;;;;;;21.10;5.15;;;9.80;99.90;;;;;;5038877;28;20213;-77
2022/04/27 01:33:10;;;;;;;19.92;4.97;;;9.80;99.90;;;;;;5039459;28;20558;-76
2022/04/27 01:35:36;;;;;;;18.17;5.25;;;9.70;99.90;;;;;;5032041;28;20361;-76
2022/04/27 01:38:03;;;;;;;16.45;4.95;;;9.70;99.90;;;;;;5032578;28;20112;-77
2022/04/27 01:40:28;;;;;;;17.95;5.07;;;9.70;99.90;;;;;;5014460;28;20024;-75
2022/04/27 01:42:54;;;;;;;13.43;4.70;;;9.70;99.90;;;;;;5032030;28;20112;-76
2022/04/27 01:45:20;;;;;;;15.27;4.55;;;9.70;99.90;;;;;;5032002;28;20033;-76
2022/04/27 01:47:45;;;;;;;14.68;4.60;;;9.70;99.90;;;;;;5037740;28;20030;-75
2022/04/27 01:50:11;;;;;;;14.93;4.82;;;9.70;99.90;;;;;;5041751;28;20390;-75
2022/04/27 01:55:20;;;;;;;19.38;5.10;;;9.70;99.90;;;;;;5031679;28;20118;-76
2022/04/27 01:57:46;;;;;;;18.98;5.28;;;9.70;99.90;;;;;;5032022;28;20073;-75
2022/04/27 02:00:12;;;;;;;21.38;5.03;;;9.70;99.90;;;;;;5031828;28;20502;-75
2022/04/27 02:02:38;;;;;;;20.00;5.43;;;9.70;99.90;;;;;;5031777;28;20025;-75
2022/04/27 02:05:04;;;;;;;14.57;5.47;;;9.60;99.90;;;;;;5032018;28;20498;-75
2022/04/27 02:07:30;;;;;;;21.10;5.07;;;9.60;99.90;;;;;;5013998;28;20496;-76
2022/04/27 02:09:56;;;;;;;19.67;5.03;;;9.60;99.90;;;;;;5033989;28;20033;-76
2022/04/27 02:12:21;;;;;;;14.65;5.53;;;9.60;99.90;;;;;;5014130;28;20372;-77
2022/04/27 02:14:47;;;;;;;18.50;4.93;;;9.60;99.90;;;;;;5032307;28;20069;-76
2022/04/27 02:17:13;;;;;;;19.08;5.45;;;9.60;99.90;;;;;;5032536;28;20032;-75
2022/04/27 02:19:38;;;;;;;16.98;5.25;;;9.60;99.90;;;;;;5031891;28;20253;-75
2022/04/27 02:22:04;;;;;;;19.85;5.80;;;9.50;99.90;;;;;;5031773;28;20116;-76
2022/04/27 02:24:30;;;;;;;14.23;5.10;;;9.50;99.90;;;;;;5013630;28;20103;-77
2022/04/27 02:26:55;;;;;;;19.98;5.30;;;9.50;99.90;;;;;;5031379;28;20376;-74
2022/04/27 02:29:24;;;;;;;12.10;5.25;;;9.50;99.90;;;;;;5031458;28;20067;-77
2022/04/27 02:31:50;;;;;;;17.75;5.07;;;9.50;99.90;;;;;;5031618;28;20030;-75
2022/04/27 02:34:16;;;;;;;14.52;5.05;;;9.50;99.90;;;;;;5014559;28;77110;-75
2022/04/27 02:36:42;;;;;;;17.15;5.10;;;9.50;99.90;;;;;;5029239;28;20096;-76
2022/04/27 02:39:07;;;;;;;19.45;5.60;;;9.50;99.90;;;;;;5032027;28;20029;-76
2022/04/27 02:41:33;;;;;;;16.90;5.15;;;9.40;99.90;;;;;;5014449;28;20026;-75
2022/04/27 02:43:58;;;;;;;20.55;5.35;;;9.40;99.90;;;;;;5032163;28;20073;-75
2022/04/27 02:46:24;;;;;;;18.73;4.88;;;9.40;99.90;;;;;;5014626;28;20033;-76
2022/04/27 02:51:49;;;;;;;16.60;5.30;;;9.30;99.90;;;;;;5032772;28;20083;-76
2022/04/27 02:54:19;;;;;;;15.15;5.07;;;9.20;99.90;;;;;;5034925;28;20299;-77
2022/04/27 02:56:45;;;;;;;15.30;5.43;;;9.20;99.90;;;;;;5037128;28;20091;-77
2022/04/27 02:59:10;;;;;;;15.65;4.95;;;9.20;99.90;;;;;;5035475;28;20021;-76
2022/04/27 03:01:38;;;;;;;16.35;5.47;;;9.20;99.90;;;;;;5032373;28;20102;-75
2022/04/27 03:04:04;;;;;;;13.85;5.28;;;9.20;99.90;;;;;;5032919;28;20434;-76
2022/04/27 03:06:30;;;;;;;17.55;5.68;;;9.20;99.90;;;;;;5030789;28;20497;-76
2022/04/27 03:08:55;;;;;;;16.77;5.47;;;9.20;99.90;;;;;;5032315;28;20028;-75
2022/04/27 03:11:21;;;;;;;12.07;5.03;;;9.10;99.90;;;;;;5032783;28;20060;-75
2022/04/27 03:13:46;;;;;;;17.13;5.32;;;9.20;99.90;;;;;;5032378;28;20112;-76
2022/04/27 03:16:12;;;;;;;13.43;5.38;;;9.10;99.90;;;;;;5032972;28;20021;-76
2022/04/27 03:18:38;;;;;;;16.30;5.72;;;9.10;99.90;;;;;;5036057;28;20040;-76
2022/04/27 03:21:04;;;;;;;16.13;5.60;;;9.10;99.90;;;;;;5036311;28;20021;-75
2022/04/27 03:23:29;;;;;;;21.08;5.90;;;9.00;99.90;;;;;;5035868;28;20398;-76
2022/04/27 03:25:55;;;;;;;19.55;6.60;;;9.00;99.90;;;;;;5035712;28;20036;-76
2022/04/27 03:28:21;;;;;;;17.15;5.95;;;9.00;99.90;;;;;;5035657;28;20021;-74
2022/04/27 03:30:49;;;;;;;16.98;5.20;;;9.00;99.90;;;;;;5018299;28;20433;-77
2022/04/27 03:33:15;;;;;;;15.82;5.70;;;9.00;99.90;;;;;;5035980;28;20459;-76
2022/04/27 03:35:41;;;;;;;15.45;6.38;;;8.90;99.90;;;;;;5038209;28;20021;-76
2022/04/27 03:38:08;;;;;;;21.05;5.50;;;8.90;99.90;;;;;;5040476;28;20104;-77
2022/04/27 03:40:34;;;;;;;16.60;5.93;;;8.80;99.90;;;;;;5022162;28;20476;-76
2022/04/27 03:42:59;;;;;;;22.95;11.48;;;8.80;99.90;;;;;;5035542;28;20021;-76
2022/04/27 03:45:25;;;;;;;18.55;7.68;;;8.80;99.90;;;;;;5035523;28;20053;-75
2022/04/27 03:47:50;;;;;;;17.60;6.70;;;8.80;99.90;;;;;;5018068;28;20471;-75
2022/04/27 03:50:16;;;;;;;17.52;5.47;;;8.80;99.90;;;;;;5018017;28;20029;-76
2022/04/27 03:52:43;;;;;;;13.50;5.55;;;8.80;99.90;;;;;;5018457;28;20558;-75
2022/04/27 03:55:09;;;;;;;20.55;6.72;;;8.80;99.90;;;;;;5038676;28;20030;-75
2022/04/27 03:57:34;;;;;;;16.88;6.25;;;8.70;99.90;;;;;;5041349;28;20022;-75
2022/04/27 04:00:00;;;;;;;22.35;6.47;;;8.80;99.90;;;;;;5042937;28;20048;-75
2022/04/27 04:02:26;;;;;;;23.45;6.72;;;8.70;99.90;;;;;;5041126;28;20021;-77
2022/04/27 04:04:51;;;;;;;18.42;6.65;;;8.70;99.90;;;;;;5021550;28;20377;-76
2022/04/27 04:07:17;;;;;;;18.58;6.15;;;8.70;99.90;;;;;;5040198;28;20040;-75
2022/04/27 04:09:42;;;;;;;15.50;6.00;;;8.70;99.90;;;;;;5037875;28;20032;-76
2022/04/27 04:12:08;;;;;;;21.50;6.07;;;8.70;99.90;;;;;;5039433;28;20057;-75
2022/04/27 04:14:34;;;;;;;18.23;6.57;;;8.80;99.90;;;;;;5038340;28;20086;-78
2022/04/27 04:17:00;;;;;;;18.55;5.85;;;8.80;99.90;;;;;;5037375;28;20021;-74
2022/04/27 04:19:25;;;;;;;18.80;5.93;;;8.80;99.90;;;;;;5039908;28;20022;-75
2022/04/27 04:21:51;;;;;;;22.20;6.72;;;8.80;99.90;;;;;;5037899;28;20048;-75
2022/04/27 04:24:17;;;;;;;18.73;6.03;;;8.80;99.90;;;;;;5036404;28;20025;-77
2022/04/27 04:29:28;;;;;;;22.27;6.25;;;8.80;99.90;;;;;;5037125;28;20036;-76
2022/04/27 04:31:53;;;;;;;18.83;6.45;;;8.80;99.90;;;;;;5041235;28;20398;-76
2022/04/27 04:34:19;;;;;;;18.83;5.88;;;8.90;99.90;;;;;;5036634;28;20029;-75
2022/04/27 04:36:44;;;;;;;16.08;5.88;;;8.90;99.90;;;;;;5035241;28;20025;-78
2022/04/27 04:39:10;;;;;;;22.08;6.53;;;8.90;99.90;;;;;;5035739;28;20022;-76
2022/04/27 04:41:35;;;;;;;15.60;6.10;;;9.00;99.90;;;;;;5035140;28;20053;-76
2022/04/27 04:44:01;;;;;;;21.95;6.70;;;9.00;99.90;;;;;;5017146;28;20026;-78
2022/04/27 04:46:26;;;;;;;18.42;6.90;;;9.00;99.90;;;;;;5035128;28;20025;-77
2022/04/27 04:48:52;;;;;;;16.17;6.70;;;9.10;99.90;;;;;;5036242;28;20045;-75
2022/04/27 04:51:17;;;;;;;19.05;6.47;;;9.10;99.90;;;;;;5035942;28;20056;-74
2022/04/27 04:53:43;;;;;;;31.92;7.43;;;9.10;99.90;;;;;;5035297;28;20040;-76
2022/04/27 04:56:08;;;;;;;18.63;6.60;;;9.10;99.90;;;;;;5035544;28;20029;-77
2022/04/27 04:58:34;;;;;;;36.88;17.45;;;9.10;99.90;;;;;;5036772;28;20498;-75
2022/04/27 05:01:01;;;;;;;16.73;6.82;;;9.10;99.90;;;;;;5036100;28;20430;-77
2022/04/27 05:03:27;;;;;;;21.40;6.30;;;9.10;99.90;;;;;;5036472;28;20109;-75
2022/04/27 05:05:52;;;;;;;26.15;7.22;;;9.10;99.90;;;;;;5041548;28;20061;-75
2022/04/27 05:08:18;;;;;;;16.75;6.32;;;9.10;99.90;;;;;;5039323;28;20025;-77
2022/04/27 05:10:44;;;;;;;15.27;6.40;;;9.20;99.90;;;;;;5042027;28;20022;-76
2022/04/27 05:13:10;;;;;;;21.23;7.60;;;9.20;99.90;;;;;;5039432;28;20043;-77
2022/04/27 05:15:35;;;;;;;20.20;6.35;;;9.30;99.90;;;;;;5039503;28;20025;-78
2022/04/27 05:18:01;;;;;;;17.10;6.22;;;9.40;99.90;;;;;;5040833;28;20081;-75
2022/04/27 05:20:26;;;;;;;16.02;6.95;;;9.40;99.90;;;;;;5040662;28;20490;-79
2022/04/27 05:22:52;;;;;;;15.93;7.18;;;9.50;99.90;;;;;;5018763;28;20057;-77
2022/04/27 05:25:18;;;;;;;12.57;5.60;;;9.50;99.90;;;;;;5035695;28;20030;-77
2022/04/27 05:27:44;;;;;;;19.73;6.53;;;9.50;99.90;;;;;;5035065;28;20108;-76
2022/04/27 05:32:55;;;;;;;21.33;7.45;;;9.60;99.90;;;;;;5034907;28;20449;-76
2022/04/27 05:35:22;;;;;;;20.58;6.80;;;9.60;99.90;;;;;;5035213;28;20056;-74
2022/04/27 05:37:47;;;;;;;23.92;6.85;;;9.70;99.90;;;;;;5034835;28;20442;-79
2022/04/27 05:40:13;;;;;;;16.92;5.85;;;9.70;99.90;;;;;;5034512;28;20104;-75
2022/04/27 05:42:39;;;;;;;17.25;5.85;;;9.70;99.90;;;;;;5034404;28;20049;-77
2022/04/27 05:45:07;;;;;;;20.02;5.88;;;9.70;99.90;;;;;;5034010;28;20025;-76
2022/04/27 05:47:34;;;;;;;14.95;5.82;;;9.70;99.90;;;;;;5034626;28;20024;-80
2022/04/27 05:49:59;;;;;;;18.65;7.07;;;9.70;99.90;;;;;;5035770;28;20529;-77
2022/04/27 05:52:25;;;;;;;17.38;6.35;;;9.90;99.90;;;;;;5034341;28;20021;-76
2022/04/27 05:54:51;;;;;;;18.05;7.47;;;9.90;99.90;;;;;;5034763;28;20080;-76
2022/04/27 05:57:17;;;;;;;20.95;7.18;;;10.10;99.90;;;;;;5034469;28;20056;-76
2022/04/27 05:59:43;;;;;;;27.35;6.43;;;10.20;99.90;;;;;;5033567;28;20029;-75
2022/04/27 06:02:09;;;;;;;24.73;6.00;;;10.30;99.90;;;;;;5033774;28;20048;-76
2022/04/27 06:04:35;;;;;;;28.67;6.35;;;10.30;99.90;;;;;;5017363;28;20026;-79
2022/04/27 06:07:02;;;;;;;18.15;5.97;;;10.40;99.90;;;;;;5037672;28;20045;-76
2022/04/27 06:09:27;;;;;;;18.27;5.97;;;10.40;99.90;;;;;;5016942;28;20034;-76
2022/04/27 06:11:53;;;;;;;19.08;5.95;;;10.40;99.90;;;;;;5034345;28;20375;-76
2022/04/27 06:14:20;;;;;;;23.92;6.50;;;10.50;99.90;;;;;;5032944;28;20108;-75
2022/04/27 06:16:45;;;;;;;17.55;6.05;;;10.50;99.90;;;;;;5032949;28;20018;-77
2022/04/27 06:19:11;;;;;;;23.48;6.50;;;10.60;99.90;;;;;;5033200;28;20104;-78
2022/04/27 06:21:37;;;;;;;17.25;6.30;;;10.70;99.90;;;;;;5034223;28;20029;-78
2022/04/27 06:24:05;;;;;;;20.33;5.95;;;10.80;99.90;;;;;;5034385;28;20029;-77
2022/04/27 06:26:33;;;;;;;20.95;6.18;;;10.80;99.90;;;;;;5034869;28;20029;-77
2022/04/27 06:28:59;;;;;;;25.15;9.27;;;10.80;99.90;;;;;;5034430;28;20104;-76
2022/04/27 06:31:24;;;;;;;19.52;6.78;;;10.90;99.90;;;;;;5034662;28;20036;-76
2022/04/27 06:33:50;;;;;;;23.13;7.22;;;11.00;99.90;;;;;;5035975;28;20026;-75
2022/04/27 06:36:16;;;;;;;23.75;6.32;;;11.10;99.90;;;;;;5036229;28;20036;-77
2022/04/27 06:38:41;;;;;;;19.75;6.63;;;11.10;99.90;;;;;;5037140;28;20027;-77
2022/04/27 06:41:07;;;;;;;20.15;5.95;;;11.20;99.90;;;;;;5034208;28;20033;-75
2022/04/27 06:43:32;;;;;;;32.38;6.20;;;11.40;99.90;;;;;;5033542;28;20021;-75
2022/04/27 06:45:59;;;;;;;19.90;6.05;;;11.40;99.90;;;;;;5033319;28;20112;-75
2022/04/27 06:48:25;;;;;;;22.20;7.72;;;11.50;99.90;;;;;;5034347;28;20390;-76
2022/04/27 06:50:51;;;;;;;13.45;5.28;;;11.60;99.90;;;;;;5035185;28;20029;-77
2022/04/27 06:53:16;;;;;;;16.10;5.68;;;11.70;99.90;;;;;;5015618;28;20102;-76
2022/04/27 06:55:42;;;;;;;13.95;4.90;;;11.70;99.90;;;;;;5015598;28;20459;-75
2022/04/27 06:58:07;;;;;;;19.27;5.15;;;11.80;99.90;;;;;;5015439;28;20033;-77
2022/04/27 07:00:33;;;;;;;15.52;4.90;;;11.90;99.90;;;;;;5032775;28;20021;-75
2022/04/27 07:02:59;;;;;;;25.17;5.22;;;12.00;99.90;;;;;;5032672;28;20033;-76
2022/04/27 07:05:26;;;;;;;27.00;7.25;;;12.10;99.90;;;;;;5032866;28;20017;-75
2022/04/27 07:07:52;;;;;;;25.65;8.02;;;12.20;99.90;;;;;;5033079;28;20117;-76
2022/04/27 07:10:19;;;;;;;23.50;7.93;;;12.20;99.90;;;;;;5032491;28;20029;-76
2022/04/27 07:12:46;;;;;;;15.23;4.82;;;12.40;99.90;;;;;;5036461;28;20025;-77
2022/04/27 07:15:12;;;;;;;26.00;4.95;;;12.50;99.90;;;;;;5041794;28;20042;-77
2022/04/27 07:17:38;;;;;;;23.98;5.15;;;12.60;99.90;;;;;;5032928;28;20029;-76
2022/04/27 07:20:04;;;;;;;18.75;5.03;;;12.70;99.90;;;;;;5033030;28;20070;-75
2022/04/27 07:22:30;;;;;;;14.43;4.60;;;12.70;99.90;;;;;;5033253;28;20039;-75
2022/04/27 07:24:55;;;;;;;13.80;4.97;;;12.70;99.90;;;;;;5014885;28;20025;-76
2022/04/27 07:27:21;;;;;;;22.58;6.97;;;12.70;99.90;;;;;;5033013;28;20044;-75
2022/04/27 07:29:47;;;;;;;20.77;5.47;;;12.80;99.90;;;;;;5032559;28;20030;-76
2022/04/27 07:32:12;;;;;;;17.67;4.65;;;12.90;99.90;;;;;;5033168;28;20104;-77
2022/04/27 07:34:38;;;;;;;16.63;3.63;;;13.00;99.90;;;;;;5016354;28;20056;-78
2022/04/27 07:37:05;;;;;;;14.93;3.60;;;13.10;99.90;;;;;;5025114;28;20089;-77
2022/04/27 07:39:33;;;;;;;14.77;3.58;;;13.10;99.90;;;;;;5049098;28;20021;-76
2022/04/27 07:41:59;;;;;;;11.25;3.58;;;13.30;99.90;;;;;;5044347;28;20111;-74
2022/04/27 07:44:25;;;;;;;19.95;4.28;;;13.40;99.90;;;;;;5030469;28;20013;-76
2022/04/27 07:46:51;;;;;;;38.55;12.05;;;13.60;99.90;;;;;;5031057;28;20033;-78
2022/04/27 07:49:21;;;;;;;19.63;4.60;;;13.60;99.90;;;;;;5037196;28;20221;-80
2022/04/27 07:51:48;;;;;;;21.05;4.75;;;13.60;99.90;;;;;;5025611;28;20021;-77
2022/04/27 07:54:14;;;;;;;20.10;4.28;;;13.50;99.90;;;;;;5046650;28;20123;-78
2022/04/27 07:56:40;;;;;;;19.55;5.38;;;13.30;99.90;;;;;;5040836;28;20029;-77
2022/04/27 07:59:05;;;;;;;14.48;3.72;;;13.20;99.90;;;;;;5038027;28;20049;-79
2022/04/27 08:01:31;;;;;;;22.65;4.68;;;13.10;99.90;;;;;;5038959;28;20028;-79
2022/04/27 08:03:57;;;;;;;20.23;4.13;;;13.00;99.90;;;;;;5044795;28;20802;-78
2022/04/27 08:06:22;;;;;;;15.18;3.28;;;13.10;99.90;;;;;;5042281;28;20057;-77
2022/04/27 08:08:48;;;;;;;13.32;3.17;;;13.10;99.90;;;;;;5044489;28;20037;-77
2022/04/27 08:11:15;;;;;;;15.90;3.38;;;13.10;99.90;;;;;;5046517;28;20026;-77
2022/04/27 08:13:44;;;;;;;15.95;3.70;;;13.20;99.90;;;;;;5045264;28;20410;-78
2022/04/27 08:16:11;;;;;;;12.52;3.20;;;13.30;99.90;;;;;;5044151;28;20112;-78
2022/04/27 08:18:38;;;;;;;14.30;3.60;;;13.30;99.90;;;;;;5043044;28;20081;-77
2022/04/27 08:21:16;;;;;;;19.52;3.97;;;13.50;99.90;;;;;;5045713;28;20017;-79
2022/04/27 08:23:47;;;;;;;14.60;3.10;;;13.50;99.90;;;;;;5046192;28;20030;-77
2022/04/27 08:26:14;;;;;;;18.52;4.00;;;13.60;99.90;;;;;;5043890;28;20036;-77
2022/04/27 08:28:40;;;;;;;14.57;3.40;;;13.70;99.90;;;;;;5026086;28;20030;-77
2022/04/27 08:31:07;;;;;;;14.43;3.35;;;13.90;99.90;;;;;;5048574;28;20120;-76
2022/04/27 08:33:33;;;;;;;15.02;3.65;;;14.00;99.90;;;;;;5032231;28;20056;-77
2022/04/27 08:35:59;;;;;;;12.52;2.97;;;14.10;99.90;;;;;;5049847;28;20036;-77
2022/04/27 08:38:26;;;;;;;18.42;5.20;;;14.10;99.90;;;;;;5051555;28;20022;-78
2022/04/27 08:40:52;;;;;;;12.32;3.60;;;14.20;99.90;;;;;;5048224;28;20033;-81
2022/04/27 08:43:17;;;;;;;19.33;4.18;;;14.20;99.90;;;;;;5045875;28;20067;-77
2022/04/27 08:45:45;;;;;;;14.57;3.78;;;14.30;99.90;;;;;;5044994;28;20044;-75
2022/04/27 08:48:12;;;;;;;16.88;4.43;;;14.40;99.90;;;;;;5045684;28;20033;-75
2022/04/27 08:50:39;;;;;;;16.25;4.35;;;14.40;99.90;;;;;;5041711;28;20033;-76
2022/04/27 08:53:06;;;;;;;12.65;3.50;;;14.50;99.90;;;;;;5021488;28;20091;-76
2022/04/27 08:55:32;;;;;;;15.45;3.53;;;14.60;99.90;;;;;;5037219;28;20021;-77
2022/04/27 08:58:07;;;;;;;17.83;3.60;;;14.60;99.90;;;;;;5039293;28;20117;-76
2022/04/27 09:00:32;;;;;;;11.93;3.80;;;14.60;99.90;;;;;;5039517;28;20076;-78
2022/04/27 09:03:21;;;;;;;13.65;3.67;;;14.70;99.90;;;;;;5038338;28;20055;-78
2022/04/27 09:05:51;;;;;;;12.75;3.53;;;14.60;99.90;;;;;;5038361;28;20024;-77
2022/04/27 09:08:17;;;;;;;13.38;3.42;;;14.60;99.90;;;;;;5037400;28;20101;-75
2022/04/27 09:10:43;;;;;;;17.35;4.68;;;14.60;99.90;;;;;;5038303;28;20059;-76
2022/04/27 09:13:09;;;;;;;11.45;3.67;;;14.90;99.90;;;;;;5038389;28;20025;-77
2022/04/27 09:15:34;;;;;;;21.75;4.22;;;15.10;99.90;;;;;;5040904;28;20053;-77
2022/04/27 09:20:47;;;;;;;19.65;5.28;;;15.60;99.90;;;;;;5039047;28;20036;-76
2022/04/27 09:23:40;;;;;;;14.98;4.60;;;15.80;99.90;;;;;;5037790;28;20033;-74
2022/04/27 09:26:19;;;;;;;16.15;4.13;;;15.90;99.90;;;;;;5036956;28;20025;-74
2022/04/27 09:28:49;;;;;;;16.52;6.03;;;15.90;99.90;;;;;;5036553;28;20452;-75
2022/04/27 09:31:32;;;;;;;12.95;4.20;;;15.80;99.90;;;;;;5033961;28;20028;-75
2022/04/27 09:33:59;;;;;;;11.57;4.07;;;16.00;99.90;;;;;;5033414;28;20675;-74
2022/04/27 09:36:25;;;;;;;15.15;4.50;;;16.10;99.90;;;;;;5033656;28;20033;-75
2022/04/27 09:38:54;;;;;;;14.32;4.15;;;16.40;99.90;;;;;;5033947;28;20025;-74
2022/04/27 09:41:39;;;;;;;11.18;4.22;;;16.60;99.90;;;;;;5033564;28;20017;-75
2022/04/27 09:44:05;;;;;;;15.77;4.03;;;16.50;99.90;;;;;;5033683;28;20017;-75
2022/04/27 09:46:32;;;;;;;9.90;3.50;;;16.70;99.90;;;;;;5015883;28;20486;-74
2022/04/27 09:49:14;;;;;;;16.38;3.80;;;16.80;99.90;;;;;;5033501;28;20533;-76
2022/04/27 09:51:53;;;;;;;13.85;3.72;;;16.90;99.90;;;;;;5033557;28;20497;-75
2022/04/27 09:54:30;;;;;;;12.02;3.60;;;16.90;99.80;;;;;;5033564;28;20057;-78
2022/04/27 09:57:01;;;;;;;13.05;3.85;;;17.00;99.90;;;;;;5040639;28;20013;-76
2022/04/27 09:59:35;;;;;;;12.70;3.53;;;17.20;99.50;;;;;;5036751;28;20489;-76
2022/04/27 10:02:06;;;;;;;12.48;3.58;;;17.10;98.00;;;;;;5033930;28;20029;-74
2022/04/27 10:04:32;;;;;;;11.15;3.17;;;17.10;97.60;;;;;;5033418;28;20479;-76
2022/04/27 10:07:04;;;;;;;13.52;3.38;;;17.20;97.50;;;;;;5033686;28;20041;-76
2022/04/27 10:09:30;;;;;;;9.68;3.70;;;17.20;97.40;;;;;;5033664;28;20032;-77
2022/04/27 10:11:57;;;;;;;17.75;7.38;;;17.30;96.90;;;;;;5034230;28;20404;-75
2022/04/27 10:14:25;;;;;;;30.92;12.07;;;17.50;96.10;;;;;;5034836;28;20033;-77
2022/04/27 10:16:51;;;;;;;10.32;3.60;;;17.60;96.70;;;;;;5035217;28;20021;-75
2022/04/27 10:19:18;;;;;;;34.13;9.50;;;17.60;95.70;;;;;;5036920;28;20501;-76
2022/04/27 10:21:57;;;;;;;19.20;6.78;;;17.20;96.60;;;;;;5045445;28;20077;-75
2022/04/27 10:24:46;;;;;;;12.35;4.20;;;17.00;96.80;;;;;;5056002;28;20081;-75
2022/04/27 10:27:34;;;;;;;12.93;4.50;;;16.90;96.90;;;;;;5040813;28;20081;-75
2022/04/27 10:30:01;;;;;;;17.48;4.05;;;17.00;96.90;;;;;;5038300;28;20455;-78
2022/04/27 10:32:44;;;;;;;12.60;4.50;;;17.20;96.50;;;;;;5035056;28;20511;-75
2022/04/27 10:35:12;;;;;;;10.50;3.70;;;17.30;95.50;;;;;;5035587;28;20033;-74
2022/04/27 10:37:54;;;;;;;9.10;3.85;;;17.40;95.40;;;;;;5035446;28;20510;-76
2022/04/27 10:40:40;;;;;;;11.45;3.50;;;17.50;94.60;;;;;;5033214;28;20038;-76
2022/04/27 10:43:13;;;;;;;10.27;3.63;;;17.70;94.00;;;;;;5014670;28;20032;-75
2022/04/27 10:45:47;;;;;;;9.57;3.38;;;17.60;93.10;;;;;;5032784;28;20025;-76
2022/04/27 10:48:20;;;;;;;20.52;4.28;;;17.70;93.30;;;;;;5015370;28;20029;-74
2022/04/27 10:51:04;;;;;;;11.50;3.42;;;17.80;92.40;;;;;;5033291;28;20390;-76
2022/04/27 10:53:40;;;;;;;13.95;3.53;;;17.80;91.70;;;;;;5033475;28;20022;-76
2022/04/27 10:56:25;;;;;;;9.20;3.35;;;17.90;92.00;;;;;;5033114;28;20022;-76
2022/04/27 10:58:51;;;;;;;;;;;18.00;91.90;;;;;;5034065;28;20518;-78
2022/04/27 11:01:23;;;;;;;14.23;3.53;;;18.00;90.90;;;;;;5034049;28;19905;-77
2022/04/27 11:04:06;;;;;;;7.90;3.40;;;18.00;91.20;;;;;;5034345;28;20022;-77
2022/04/27 11:07:16;;;;;;;7.38;3.25;;;17.80;91.40;;;;;;5033746;28;20028;-77
2022/04/27 11:10:08;;;;;;;13.18;3.40;;;17.70;91.50;;;;;;4989126;28;20037;-75
2022/04/27 11:12:39;;;;;;;15.23;6.55;;;17.90;91.20;;;;;;5035430;28;20120;-77
2022/04/27 11:15:06;;;;;;;13.80;5.25;;;17.90;91.00;;;;;;5035839;28;20026;-76
2022/04/27 11:17:36;;;;;;;7.80;3.47;;;17.90;90.50;;;;;;5032654;28;20081;-75
2022/04/27 11:20:03;;;;;;;9.35;3.50;;;18.10;90.10;;;;;;5034199;28;20018;-78
2022/04/27 11:22:37;;;;;;;11.70;4.07;;;18.20;89.70;;;;;;5033667;28;20474;-76
2022/04/27 11:25:06;;;;;;;8.43;3.17;;;18.30;88.90;;;;;;5033469;28;20025;-75
2022/04/27 11:27:34;;;;;;;11.57;3.20;;;18.30;86.60;;;;;;5033937;28;20268;-77
2022/04/27 11:30:02;;;;;;;9.50;2.78;;;18.10;85.20;;;;;;5034117;28;20032;-77
2022/04/27 11:32:30;;;;;;;10.27;3.80;;;18.10;86.40;;;;;;5035131;28;20029;-77
2022/04/27 11:34:56;;;;;;;9.90;3.10;;;17.80;87.50;;;;;;5033748;28;20030;-77
2022/04/27 11:37:22;;;;;;;15.32;3.50;;;17.90;88.70;;;;;;5019137;28;20433;-76
2022/04/27 11:39:49;;;;;;;11.25;3.17;;;18.10;87.80;;;;;;5039145;28;20461;-77
2022/04/27 11:42:16;;;;;;;7.00;3.00;;;18.30;86.70;;;;;;5019881;28;20116;-76
2022/04/27 11:44:43;;;;;;;10.65;3.33;;;18.50;85.30;;;;;;5037631;28;20486;-76
2022/04/27 11:47:32;;;;;;;12.85;4.00;;;18.60;84.30;;;;;;5038308;28;20029;-77
2022/04/27 11:50:00;;;;;;;12.63;4.07;;;18.70;85.70;;;;;;5040499;28;20025;-78
2022/04/27 11:52:26;;;;;;;9.98;3.65;;;18.80;83.40;;;;;;5040657;28;20033;-77
2022/04/27 11:54:52;;;;;;;10.70;3.70;;;18.90;83.80;;;;;;5041991;28;20025;-76
2022/04/27 11:57:23;;;;;;;46.10;26.55;;;19.00;80.80;;;;;;5042635;28;20521;-77
2022/04/27 11:59:51;;;;;;;16.73;7.68;;;18.90;82.00;;;;;;5040909;28;20065;-75
2022/04/27 12:02:25;;;;;;;10.13;3.45;;;19.00;81.50;;;;;;5045309;28;20047;-77
2022/04/27 12:04:55;;;;;;;6.38;3.13;;;19.10;78.60;;;;;;5043071;28;20029;-75
2022/04/27 12:07:21;;;;;;;10.13;3.53;;;19.20;78.00;;;;;;5041929;28;20052;-76
2022/04/27 12:10:14;;;;;;;15.00;4.20;;;19.30;77.30;;;;;;5045088;28;20026;-77
2022/04/27 12:12:40;;;;;;;8.45;3.72;;;19.20;77.70;;;;;;5047147;28;20033;-75
2022/04/27 12:15:08;;;;;;;13.02;4.22;;;19.20;79.00;;;;;;5044011;28;20053;-77
2022/04/27 12:17:56;;;;;;;15.85;3.85;;;19.30;78.90;;;;;;5038613;28;20021;-76
2022/04/27 12:20:33;;;;;;;11.50;3.38;;;19.50;79.50;;;;;;5019559;28;20152;-76
2022/04/27 12:23:05;;;;;;;10.65;3.33;;;19.70;78.00;;;;;;5037343;28;20030;-76
2022/04/27 12:26:07;;;;;;;13.25;2.88;;;20.20;77.20;;;;;;5038067;28;20379;-77
2022/04/27 12:28:51;;;;;;;6.70;3.17;;;20.80;75.50;;;;;;4982417;28;20258;-77
2022/04/27 12:31:21;;;;;;;5.80;2.72;;;21.30;72.00;;;;;;5036338;28;20087;-77
2022/04/27 12:33:49;;;;;;;8.68;3.25;;;21.60;70.10;;;;;;5037655;28;20104;-77
2022/04/27 12:39:20;;;;;;;8.23;2.70;;;22.40;65.10;;;;;;5041675;28;20032;-77
2022/04/27 12:41:48;;;;;;;8.07;3.00;;;22.90;65.30;;;;;;5022539;28;20067;-76
2022/04/27 12:44:24;;;;;;;16.38;3.90;;;23.60;62.10;;;;;;5035592;28;20035;-76
2022/04/27 12:47:04;;;;;;;8.60;3.92;;;24.10;59.60;;;;;;5036256;28;20026;-75
2022/04/27 12:49:40;;;;;;;7.97;3.05;;;24.60;58.10;;;;;;5037747;28;20112;-78
2022/04/27 12:52:29;;;;;;;13.82;4.53;;;24.80;56.50;;;;;;5040486;28;20509;-76
2022/04/27 12:55:21;;;;;;;7.32;3.20;;;24.60;55.50;;;;;;5042886;28;20032;-77
2022/04/27 12:57:52;;;;;;;10.02;3.00;;;24.80;55.10;;;;;;5037189;28;20033;-77
2022/04/27 13:00:20;;;;;;;6.28;2.55;;;25.30;54.10;;;;;;5040113;28;20064;-76
2022/04/27 13:02:46;;;;;;;12.65;3.75;;;26.00;52.30;;;;;;5034728;28;20474;-73